Terminal Aerodrome Forecast
Issued by NWS

Home | Current Version | Previous Version | Text Only | Print | Product List | Glossary On
Versions: 1 2 3 4 5 6 7 8 9 10 11 12 13 14 15 16 17
000
FTUS42 KTBW 171135
TAFRSW
TAF
KRSW 171135Z 1712/1812 07004KT P6SM FEW002 SCT250
     FM171300 VRB04KT P6SM FEW020 SCT250
     FM171700 VRB06KT P6SM VCTS SCT030CB SCT080 BKN250
     FM172000 30007KT P6SM VCTS FEW035CB BKN050
     FM180200 34003KT P6SM SCT050 BKN250=

USA.gov is the U.S. government's official web portal to all federal, state and local government web resources and services.